Radiosonde details



Informationen :

Serial : D26003301
Type : Graw DFM
Frequency : 403.010MHz
Launchsite : Tampa Bay Area
Nearest town : Tierra Verde, US (3km)

Altitude (Max) : 35326m at 2026-09-06 00:57:51
Speed (Max) : 117km/h at altitude 35057m

Average speed : 27km/h
Average ascent rate : 5m/s
Average descent rate : -8m/s
Ascent rate (Max) : 12.4m/s
Descent rate (Max): -47.2m/s

First frame :
ARGUS2 at 2026-09-05 23:05:42 at altitude 1045m (OG: 986m)
Last frame :
ARGUS2 at 2026-09-06 02:09:38 at altitude 870m (OG: 828m)

Flighttime : 3h3m56s
Ascent time : 1h52m9s
Descent time : 1h11m47s
Uptime : -
Killtimer : -

Distance (Straight line distance): 29km

Distance (Route):


Frames : 481


Measurement :

Temperature : 22.9°C
Humidity : 0%
Pressure : 0hPa


Vertical profile (SkewT) :


Elevation profile :



Receiving stations :


Receiver Frames First received Last received
ARGUS2 481 2026-09-05 23:05:42 2026-09-06 02:09:38

Share per receiver :



All frames :


Receiver Date Latitude Longitude Direction Speed Altitude Climb Temperature Humidity Pressure Voltage Killtimer Uptime BKT XDATA
ARGUS22026-09-06 02:09:3827.68534-82.69339116°4km/h870m-4.0m/s22.9°C0%0hPa0V00:00:0000:00:0000:00:00
ARGUS22026-09-06 02:09:1527.68541-82.69360117°4km/h958m-4.2m/s22.5°C0%0hPa0V00:00:0000:00:0000:00:00
ARGUS22026-09-06 02:08:5327.68539-82.6937338°2km/h1046m-3.7m/s22.1°C0%0hPa0V00:00:0000:00:0000:00:00
ARGUS22026-09-06 02:08:3227.68529-82.6937815°4km/h1131m-4.3m/s21.6°C0%0hPa0V00:00:0000:00:0000:00:00
ARGUS22026-09-06 02:08:1127.68510-82.693824km/h1220m-4.1m/s21.2°C0%0hPa0V00:00:0000:00:0000:00:00
ARGUS22026-09-06 02:07:5027.68489-82.69376341°5km/h1300m-3.9m/s20.6°C0%0hPa0V00:00:0000:00:0000:00:00
ARGUS22026-09-06 02:07:3027.68465-82.69373360°5km/h1380m-3.9m/s20.2°C0%0hPa0V00:00:0000:00:0000:00:00
ARGUS22026-09-06 02:07:0927.68442-82.69374338°4km/h1465m-4.2m/s19.8°C0%0hPa0V00:00:0000:00:0000:00:00
ARGUS22026-09-06 02:06:4827.68421-82.6937313°4km/h1550m-3.8m/s19.3°C0%0hPa0V00:00:0000:00:0000:00:00
ARGUS22026-09-06 02:06:2827.68405-82.6937922°4km/h1636m-4.3m/s18.9°C0%0hPa0V00:00:0000:00:0000:00:00
ARGUS22026-09-06 02:06:0627.68387-82.6938314°4km/h1722m-4.2m/s18.5°C0%0hPa0V00:00:0000:00:0000:00:00
ARGUS22026-09-06 02:05:4527.68371-82.6938642°2km/h1808m-4.1m/s18.0°C0%0hPa0V00:00:0000:00:0000:00:00
ARGUS22026-09-06 02:03:4627.68326-82.6951296°5km/h2305m-4.2m/s15.5°C0%0hPa0V00:00:0000:00:0000:00:00
ARGUS22026-09-06 02:03:1927.68330-82.6955498°5km/h2419m-3.9m/s14.9°C0%0hPa0V00:00:0000:00:0000:00:00
ARGUS22026-09-06 02:00:2327.68394-82.69920103°11km/h3144m-3.9m/s10.2°C0%0hPa0V00:00:0000:00:0000:00:00
ARGUS22026-09-06 02:00:0027.68410-82.69988100°11km/h3232m-3.9m/s9.8°C0%0hPa0V00:00:0000:00:0000:00:00
ARGUS22026-09-06 01:59:4027.68418-82.7006599°15km/h3312m-3.8m/s9.3°C0%0hPa0V00:00:0000:00:0000:00:00
ARGUS22026-09-06 01:59:1927.68429-82.7016994°18km/h3391m-3.8m/s9.3°C0%0hPa0V00:00:0000:00:0000:00:00
ARGUS22026-09-06 01:58:5727.68430-82.7027894°18km/h3470m-3.8m/s9.0°C0%0hPa0V00:00:0000:00:0000:00:00
ARGUS22026-09-06 01:58:3627.68440-82.7038397°16km/h3549m-3.7m/s8.7°C0%0hPa0V00:00:0000:00:0000:00:00
ARGUS22026-09-06 01:58:1627.68449-82.7047995°15km/h3627m-3.8m/s8.2°C0%0hPa0V00:00:0000:00:0000:00:00
ARGUS22026-09-06 01:57:5527.68448-82.7056691°15km/h3701m-3.9m/s7.7°C0%0hPa0V00:00:0000:00:0000:00:00
ARGUS22026-09-06 01:57:3527.68447-82.7064792°13km/h3783m-3.8m/s7.1°C0%0hPa0V00:00:0000:00:0000:00:00
ARGUS22026-09-06 01:57:1327.68448-82.7072492°11km/h3867m-4.1m/s6.7°C0%0hPa0V00:00:0000:00:0000:00:00
ARGUS22026-09-06 01:56:5327.68452-82.70787100°11km/h3948m-4.3m/s6.2°C0%0hPa0V00:00:0000:00:0000:00:00
ARGUS22026-09-06 01:56:3227.68458-82.7084697°9km/h4036m-3.9m/s5.5°C0%0hPa0V00:00:0000:00:0000:00:00
ARGUS22026-09-06 01:56:1127.68458-82.7090885°9km/h4129m-4.3m/s4.7°C0%0hPa0V00:00:0000:00:0000:00:00
ARGUS22026-09-06 01:55:4927.68453-82.7096190°9km/h4219m-4.3m/s4.1°C0%0hPa0V00:00:0000:00:0000:00:00
ARGUS22026-09-06 01:55:0827.68459-82.71057116°5km/h4398m-4.5m/s2.8°C0%0hPa0V00:00:0000:00:0000:00:00
ARGUS22026-09-06 01:54:4727.68476-82.71102112°9km/h4489m-4.6m/s2.1°C0%0hPa0V00:00:0000:00:0000:00:00
ARGUS22026-09-06 01:54:2527.68491-82.71156105°9km/h4587m-4.4m/s1.3°C0%0hPa0V00:00:0000:00:0000:00:00
ARGUS22026-09-06 01:54:0427.68510-82.71211132°9km/h4686m-4.5m/s0.6°C0%0hPa0V00:00:0000:00:0000:00:00
ARGUS22026-09-06 01:53:4227.68548-82.71250143°9km/h4779m-4.3m/s0.1°C0%0hPa0V00:00:0000:00:0000:00:00
ARGUS22026-09-06 01:53:2127.68586-82.71290127°9km/h4871m-4.2m/s-0.5°C0%0hPa0V00:00:0000:00:0000:00:00
ARGUS22026-09-06 01:53:0027.68607-82.71340114°9km/h4964m-4.5m/s-0.9°C0%0hPa0V00:00:0000:00:0000:00:00
ARGUS22026-09-06 01:52:4027.68634-82.71388134°9km/h5057m-4.4m/s-1.5°C0%0hPa0V00:00:0000:00:0000:00:00
ARGUS22026-09-06 01:52:1927.68674-82.71419154°11km/h5144m-4.3m/s-1.8°C0%0hPa0V00:00:0000:00:0000:00:00
ARGUS22026-09-06 01:51:5927.68729-82.71447152°13km/h5236m-4.4m/s-2.3°C0%0hPa0V00:00:0000:00:0000:00:00
ARGUS22026-09-06 01:51:3827.68788-82.71493137°15km/h5327m-4.5m/s-3.0°C0%0hPa0V00:00:0000:00:0000:00:00
ARGUS22026-09-06 01:51:1627.68836-82.71551136°15km/h5418m-4.3m/s-3.8°C0%0hPa0V00:00:0000:00:0000:00:00
ARGUS22026-09-06 01:50:5627.68897-82.71606153°15km/h5508m-4.2m/s-4.3°C0%0hPa0V00:00:0000:00:0000:00:00
ARGUS22026-09-06 01:50:2327.69010-82.71687140°16km/h5652m-4.3m/s-4.9°C0%0hPa0V00:00:0000:00:0000:00:00
ARGUS22026-09-06 01:49:4527.69130-82.71815141°18km/h5818m-4.4m/s-6.3°C0%0hPa0V00:00:0000:00:0000:00:00
ARGUS22026-09-06 01:49:2227.69206-82.71884146°18km/h5915m-4.4m/s-6.9°C0%0hPa0V00:00:0000:00:0000:00:00
ARGUS22026-09-06 01:49:0127.69277-82.71950140°18km/h6010m-4.3m/s-7.6°C0%0hPa0V00:00:0000:00:0000:00:00
ARGUS22026-09-06 01:48:4127.69355-82.72025139°22km/h6104m-4.4m/s-8.0°C0%0hPa0V00:00:0000:00:0000:00:00
ARGUS22026-09-06 01:48:2027.69434-82.72110138°22km/h6195m-4.7m/s-8.4°C0%0hPa0V00:00:0000:00:0000:00:00
ARGUS22026-09-06 01:48:0027.69516-82.72203133°22km/h6290m-4.6m/s-9.1°C0%0hPa0V00:00:0000:00:0000:00:00
ARGUS22026-09-06 01:47:3927.69580-82.72300124°22km/h6383m-4.2m/s-9.5°C0%0hPa0V00:00:0000:00:0000:00:00
ARGUS22026-09-06 01:47:1927.69642-82.72425116°26km/h6477m-4.3m/s-10.0°C0%0hPa0V00:00:0000:00:0000:00:00
ARGUS22026-09-06 01:46:5727.69699-82.72562117°26km/h6569m-4.4m/s-10.8°C0%0hPa0V00:00:0000:00:0000:00:00
ARGUS22026-09-06 01:46:3727.69759-82.72691122°26km/h6657m-4.4m/s-11.4°C0%0hPa0V00:00:0000:00:0000:00:00
ARGUS22026-09-06 01:46:1127.69838-82.72846120°24km/h6770m-4.4m/s-12.0°C0%0hPa0V00:00:0000:00:0000:00:00
ARGUS22026-09-06 01:45:5127.69893-82.72962117°20km/h6862m-4.7m/s-12.3°C0%0hPa0V00:00:0000:00:0000:00:00
ARGUS22026-09-06 01:45:3027.69940-82.73063120°20km/h6951m-4.4m/s-12.8°C0%0hPa0V00:00:0000:00:0000:00:00
ARGUS22026-09-06 01:45:1027.69989-82.73161121°18km/h7045m-4.6m/s-13.3°C0%0hPa0V00:00:0000:00:0000:00:00
ARGUS22026-09-06 01:44:4927.70029-82.73248119°16km/h7137m-4.5m/s-13.9°C0%0hPa0V00:00:0000:00:0000:00:00
ARGUS22026-09-06 01:44:2927.70073-82.73340123°16km/h7232m-4.7m/s-14.7°C0%0hPa0V00:00:0000:00:0000:00:00
ARGUS22026-09-06 01:44:0827.70123-82.73421128°16km/h7327m-5.1m/s-15.1°C0%0hPa0V00:00:0000:00:0000:00:00
ARGUS22026-09-06 01:43:2727.70259-82.73582139°20km/h7522m-4.8m/s-16.1°C0%0hPa0V00:00:0000:00:0000:00:00
ARGUS22026-09-06 01:43:0727.70339-82.73668134°20km/h7625m-5.1m/s-16.6°C0%0hPa0V00:00:0000:00:0000:00:00
ARGUS22026-09-06 01:42:4627.70412-82.73750136°20km/h7726m-5.0m/s-17.0°C0%0hPa0V00:00:0000:00:0000:00:00
ARGUS22026-09-06 01:40:5227.70572-82.7421472°13km/h8323m-5.5m/s-20.9°C0%0hPa0V00:00:0000:00:0000:00:00
ARGUS22026-09-06 01:40:3227.70547-82.7428668°13km/h8435m-5.5m/s-21.9°C0%0hPa0V00:00:0000:00:0000:00:00
ARGUS22026-09-06 01:40:1127.70516-82.7436070°16km/h8541m-5.1m/s-22.7°C0%0hPa0V00:00:0000:00:0000:00:00
ARGUS22026-09-06 01:39:5127.70498-82.7445283°15km/h8651m-5.3m/s-23.3°C0%0hPa0V00:00:0000:00:0000:00:00
ARGUS22026-09-06 01:39:2927.70484-82.7454277°16km/h8760m-5.2m/s-24.2°C0%0hPa0V00:00:0000:00:0000:00:00
ARGUS22026-09-06 01:39:0927.70461-82.7462172°15km/h8864m-5.4m/s-24.8°C0%0hPa0V00:00:0000:00:0000:00:00
ARGUS22026-09-06 01:38:4927.70442-82.7471476°16km/h8973m-5.2m/s-25.6°C0%0hPa0V00:00:0000:00:0000:00:00
ARGUS22026-09-06 01:38:2827.70411-82.7479556°16km/h9075m-5.2m/s-26.2°C0%0hPa0V00:00:0000:00:0000:00:00
ARGUS22026-09-06 01:38:0827.70351-82.7486241°16km/h9180m-4.9m/s-27.0°C0%0hPa0V00:00:0000:00:0000:00:00
ARGUS22026-09-06 01:37:4727.70282-82.7493243°20km/h9278m-4.9m/s-27.4°C0%0hPa0V00:00:0000:00:0000:00:00
ARGUS22026-09-06 01:37:2727.70202-82.7500952°18km/h9382m-4.9m/s-27.0°C0%0hPa0V00:00:0000:00:0000:00:00
ARGUS22026-09-06 01:37:0627.70152-82.7509561°18km/h9479m-5.2m/s-27.6°C0%0hPa0V00:00:0000:00:0000:00:00
ARGUS22026-09-06 01:36:4627.70105-82.7519065°18km/h9584m-4.9m/s-28.6°C0%0hPa0V00:00:0000:00:0000:00:00
ARGUS22026-09-06 01:36:2527.70073-82.7528874°20km/h9684m-5.1m/s-29.5°C0%0hPa0V00:00:0000:00:0000:00:00
ARGUS22026-09-06 01:36:0527.70056-82.7540585°20km/h9788m-4.9m/s-30.4°C0%0hPa0V00:00:0000:00:0000:00:00
ARGUS22026-09-06 01:35:4427.70047-82.7551986°18km/h9892m-5.2m/s-31.3°C0%0hPa0V00:00:0000:00:0000:00:00
ARGUS22026-09-06 01:35:2227.70029-82.7563678°20km/h9998m-5.2m/s-32.2°C0%0hPa0V00:00:0000:00:0000:00:00
ARGUS22026-09-06 01:33:4327.69891-82.7623368°18km/h10539m-5.5m/s-36.2°C0%0hPa0V00:00:0000:00:0000:00:00
ARGUS22026-09-06 01:33:1127.69841-82.7636981°15km/h10717m-5.9m/s-37.4°C0%0hPa0V00:00:0000:00:0000:00:00
ARGUS22026-09-06 01:32:4927.69820-82.7644464°9km/h10847m-6.3m/s-38.3°C0%0hPa0V00:00:0000:00:0000:00:00
ARGUS22026-09-06 01:32:2827.69791-82.7648842°7km/h10972m-6.2m/s-39.3°C0%0hPa0V00:00:0000:00:0000:00:00
ARGUS22026-09-06 01:32:0727.69758-82.7651331°7km/h11099m-6.2m/s-40.3°C0%0hPa0V00:00:0000:00:0000:00:00
ARGUS22026-09-06 01:31:4727.69716-82.7652913°11km/h11222m-6.2m/s-41.3°C0%0hPa0V00:00:0000:00:0000:00:00
ARGUS22026-09-06 01:31:2727.69666-82.76530348°9km/h11350m-5.9m/s-42.3°C0%0hPa0V00:00:0000:00:0000:00:00
ARGUS22026-09-06 01:31:0627.69617-82.76516343°11km/h11472m-5.9m/s-43.3°C0%0hPa0V00:00:0000:00:0000:00:00
ARGUS22026-09-06 01:30:4627.69562-82.76490335°13km/h11600m-6.3m/s-44.5°C0%0hPa0V00:00:0000:00:0000:00:00
ARGUS22026-09-06 01:30:2427.69492-82.76457339°15km/h11725m-5.8m/s-45.5°C0%0hPa0V00:00:0000:00:0000:00:00
ARGUS22026-09-06 01:30:0427.69415-82.76418336°18km/h11836m-5.8m/s-46.5°C0%0hPa0V00:00:0000:00:0000:00:00
ARGUS22026-09-06 01:29:4327.69330-82.76369334°18km/h11955m-5.6m/s-47.5°C0%0hPa0V00:00:0000:00:0000:00:00
ARGUS22026-09-06 01:29:2327.69244-82.76331345°18km/h12063m-5.4m/s-48.3°C0%0hPa0V00:00:0000:00:0000:00:00
ARGUS22026-09-06 01:29:0327.69138-82.76311349°20km/h12173m-5.4m/s-48.9°C0%0hPa0V00:00:0000:00:0000:00:00
ARGUS22026-09-06 01:28:4227.69042-82.76287348°18km/h12273m-5.3m/s-49.6°C0%0hPa0V00:00:0000:00:0000:00:00
ARGUS22026-09-06 01:28:2227.68942-82.76243329°20km/h12382m-5.5m/s-50.5°C0%0hPa0V00:00:0000:00:0000:00:00
ARGUS22026-09-06 01:28:0127.68852-82.76179325°22km/h12495m-5.7m/s-51.4°C0%0hPa0V00:00:0000:00:0000:00:00
ARGUS22026-09-06 01:27:4127.68756-82.76108327°20km/h12616m-5.5m/s-52.5°C0%0hPa0V00:00:0000:00:0000:00:00
ARGUS22026-09-06 01:27:2027.68662-82.76040329°20km/h12729m-5.3m/s-53.5°C0%0hPa0V00:00:0000:00:0000:00:00
ARGUS22026-09-06 01:27:0027.68564-82.75975334°22km/h12839m-5.5m/s-54.5°C0%0hPa0V00:00:0000:00:0000:00:00
ARGUS22026-09-06 01:26:3927.68469-82.75916327°20km/h12945m-5.8m/s-55.4°C0%0hPa0V00:00:0000:00:0000:00:00
ARGUS22026-09-06 01:26:1927.68382-82.75834313°24km/h13066m-5.9m/s-56.2°C0%0hPa0V00:00:0000:00:0000:00:00
ARGUS22026-09-06 01:25:5827.68299-82.75732320°24km/h13184m-6.0m/s-57.0°C0%0hPa0V00:00:0000:00:0000:00:00
ARGUS22026-09-06 01:25:3827.68195-82.75656332°26km/h13309m-6.3m/s-57.8°C0%0hPa0V00:00:0000:00:0000:00:00
ARGUS22026-09-06 01:25:1627.68078-82.75607353°22km/h13435m-6.1m/s-58.6°C0%0hPa0V00:00:0000:00:0000:00:00
ARGUS22026-09-06 01:24:5627.67969-82.75590351°20km/h13558m-6.2m/s-59.4°C0%0hPa0V00:00:0000:00:0000:00:00
ARGUS22026-09-06 01:24:3527.67878-82.75558336°16km/h13692m-6.4m/s-60.5°C0%0hPa0V00:00:0000:00:0000:00:00
ARGUS22026-09-06 01:24:1527.67799-82.75529355°18km/h13820m-6.0m/s-61.3°C0%0hPa0V00:00:0000:00:0000:00:00
ARGUS22026-09-06 01:23:5427.67703-82.7552320km/h13954m-6.8m/s-62.5°C0%0hPa0V00:00:0000:00:0000:00:00
ARGUS22026-09-06 01:23:3427.67617-82.7553218km/h14086m-6.3m/s-62.7°C0%0hPa0V00:00:0000:00:0000:00:00
ARGUS22026-09-06 01:23:1327.67528-82.7554818°15km/h14227m-6.7m/s-63.4°C0%0hPa0V00:00:0000:00:0000:00:00
ARGUS22026-09-06 01:22:5327.67465-82.7557629°13km/h14361m-6.7m/s-63.4°C0%0hPa0V00:00:0000:00:0000:00:00
ARGUS22026-09-06 01:22:3227.67403-82.7560011°15km/h14502m-6.6m/s-64.3°C0%0hPa0V00:00:0000:00:0000:00:00
ARGUS22026-09-06 01:22:1227.67329-82.7561616km/h14637m-6.7m/s-65.4°C0%0hPa0V00:00:0000:00:0000:00:00
ARGUS22026-09-06 01:21:5227.67248-82.7562915km/h14781m-6.9m/s-66.6°C0%0hPa0V00:00:0000:00:0000:00:00
ARGUS22026-09-06 01:21:3127.67158-82.7564516°18km/h14919m-6.7m/s-67.4°C0%0hPa0V00:00:0000:00:0000:00:00
ARGUS22026-09-06 01:21:1127.67076-82.7568113°16km/h15060m-6.6m/s-68.3°C0%0hPa0V00:00:0000:00:0000:00:00
ARGUS22026-09-06 01:20:5027.67001-82.7570722°15km/h15193m-6.7m/s-68.9°C0%0hPa0V00:00:0000:00:0000:00:00
ARGUS22026-09-06 01:20:3027.66924-82.7573818°15km/h15341m-7.4m/s-69.7°C0%0hPa0V00:00:0000:00:0000:00:00
ARGUS22026-09-06 01:20:0827.66845-82.75742356°16km/h15491m-7.3m/s-70.1°C0%0hPa0V00:00:0000:00:0000:00:00
ARGUS22026-09-06 01:19:4827.66792-82.7577970°9km/h15634m-7.3m/s-69.7°C0%0hPa0V00:00:0000:00:0000:00:00
ARGUS22026-09-06 01:19:2727.66792-82.75826128°11km/h15789m-7.4m/s-70.8°C0%0hPa0V00:00:0000:00:0000:00:00
ARGUS22026-09-06 01:19:0727.66851-82.75860168°22km/h15934m-7.4m/s-71.7°C0%0hPa0V00:00:0000:00:0000:00:00
ARGUS22026-09-06 01:18:4627.66963-82.75849201°20km/h16095m-7.6m/s-72.5°C0%0hPa0V00:00:0000:00:0000:00:00
ARGUS22026-09-06 01:18:2627.67038-82.75787235°13km/h16252m-8.0m/s-72.6°C0%0hPa0V00:00:0000:00:0000:00:00
ARGUS22026-09-06 01:18:0627.67089-82.75777178°13km/h16421m-8.3m/s-71.3°C0%0hPa0V00:00:0000:00:0000:00:00
ARGUS22026-09-06 01:17:4527.67176-82.75779168°18km/h16584m-8.1m/s-71.3°C0%0hPa0V00:00:0000:00:0000:00:00
ARGUS22026-09-06 01:17:2527.67260-82.75838133°20km/h16756m-7.8m/s-70.3°C0%0hPa0V00:00:0000:00:0000:00:00
ARGUS22026-09-06 01:17:0427.67348-82.75861193°26km/h16923m-8.8m/s-69.6°C0%0hPa0V00:00:0000:00:0000:00:00
ARGUS22026-09-06 01:16:4427.67510-82.75771221°42km/h17107m-9.0m/s-70.2°C0%0hPa0V00:00:0000:00:0000:00:00
ARGUS22026-09-06 01:16:2327.67658-82.75603230°38km/h17282m-8.7m/s-70.7°C0%0hPa0V00:00:0000:00:0000:00:00
ARGUS22026-09-06 01:16:0327.67754-82.75502208°20km/h17462m-8.7m/s-69.4°C0%0hPa0V00:00:0000:00:0000:00:00
ARGUS22026-09-06 01:15:4227.67855-82.75430216°22km/h17639m-8.6m/s-69.3°C0%0hPa0V00:00:0000:00:0000:00:00
ARGUS22026-09-06 01:15:2227.67994-82.75396193°33km/h17829m-9.1m/s-68.2°C0%0hPa0V00:00:0000:00:0000:00:00
ARGUS22026-09-06 01:15:0127.68166-82.75278223°46km/h18012m-9.3m/s-68.2°C0%0hPa0V00:00:0000:00:0000:00:00
ARGUS22026-09-06 01:14:4127.68306-82.75068246°47km/h18205m-9.4m/s-69.1°C0%0hPa0V00:00:0000:00:0000:00:00
ARGUS22026-09-06 01:14:1927.68295-82.74840303°33km/h18400m-9.6m/s-67.0°C0%0hPa0V00:00:0000:00:0000:00:00
ARGUS22026-09-06 01:13:5927.68218-82.74756320°5km/h18589m-8.8m/s-67.0°C0%0hPa0V00:00:0000:00:0000:00:00
ARGUS22026-09-06 01:13:3927.68271-82.74750211°15km/h18786m-8.7m/s-64.5°C0%0hPa0V00:00:0000:00:0000:00:00
ARGUS22026-09-06 01:13:1827.68352-82.74665247°20km/h18977m-9.6m/s-63.6°C0%0hPa0V00:00:0000:00:0000:00:00
ARGUS22026-09-06 01:12:5727.68320-82.74552305°11km/h19191m-10.3m/s-63.2°C0%0hPa0V00:00:0000:00:0000:00:00
ARGUS22026-09-06 01:12:3827.68305-82.74471305°18km/h19393m-10.5m/s-62.0°C0%0hPa0V00:00:0000:00:0000:00:00
ARGUS22026-09-06 01:12:1727.68204-82.7442114°22km/h19617m-10.2m/s-61.8°C0%0hPa0V00:00:0000:00:0000:00:00
ARGUS22026-09-06 01:11:5627.68101-82.74426347°15km/h19827m-10.1m/s-61.6°C0%0hPa0V00:00:0000:00:0000:00:00
ARGUS22026-09-06 01:11:3627.68022-82.74372304°15km/h20049m-9.9m/s-61.8°C0%0hPa0V00:00:0000:00:0000:00:00
ARGUS22026-09-06 01:11:1527.67986-82.74277274°13km/h20264m-10.9m/s-61.9°C0%0hPa0V00:00:0000:00:0000:00:00
ARGUS22026-09-06 01:10:5427.68004-82.74184265°22km/h20497m-11.4m/s-60.1°C0%0hPa0V00:00:0000:00:0000:00:00
ARGUS22026-09-06 01:10:3427.67985-82.74051293°16km/h20722m-11.7m/s-60.4°C0%0hPa0V00:00:0000:00:0000:00:00
ARGUS22026-09-06 01:10:1427.68011-82.73948267°24km/h20965m-11.7m/s-59.3°C0%0hPa0V00:00:0000:00:0000:00:00
ARGUS22026-09-06 01:09:5327.68068-82.73856227°31km/h21202m-12.3m/s-57.5°C0%0hPa0V00:00:0000:00:0000:00:00
ARGUS22026-09-06 01:09:3327.68138-82.73717253°31km/h21460m-12.8m/s-57.3°C0%0hPa0V00:00:0000:00:0000:00:00
ARGUS22026-09-06 01:09:1127.68212-82.73542239°33km/h21733m-13.3m/s-57.5°C0%0hPa0V00:00:0000:00:0000:00:00
ARGUS22026-09-06 01:08:5127.68258-82.73374267°29km/h21993m-12.5m/s-57.9°C0%0hPa0V00:00:0000:00:0000:00:00
ARGUS22026-09-06 01:08:3127.68293-82.73198258°27km/h22257m-12.7m/s-56.9°C0%0hPa0V00:00:0000:00:0000:00:00
ARGUS22026-09-06 01:08:1027.68325-82.73054262°24km/h22506m-12.6m/s-55.0°C0%0hPa0V00:00:0000:00:0000:00:00
ARGUS22026-09-06 01:07:4927.68399-82.72874250°44km/h22774m-12.3m/s-54.7°C0%0hPa0V00:00:0000:00:0000:00:00
ARGUS22026-09-06 01:07:2927.68463-82.72672266°29km/h23026m-13.0m/s-56.1°C0%0hPa0V00:00:0000:00:0000:00:00
ARGUS22026-09-06 01:07:0927.68526-82.72464243°55km/h23301m-11.9m/s-56.3°C0%0hPa0V00:00:0000:00:0000:00:00
ARGUS22026-09-06 01:06:4827.68626-82.72160259°53km/h23563m-13.5m/s-56.4°C0%0hPa0V00:00:0000:00:0000:00:00
ARGUS22026-09-06 01:06:2827.68601-82.71890290°42km/h23861m-14.9m/s-55.9°C0%0hPa0V00:00:0000:00:0000:00:00
ARGUS22026-09-06 01:06:0727.68534-82.71655278°47km/h24158m-15.4m/s-55.7°C0%0hPa0V00:00:0000:00:0000:00:00
ARGUS22026-09-06 01:05:4727.68437-82.71384305°44km/h24477m-15.8m/s-55.3°C0%0hPa0V00:00:0000:00:0000:00:00
ARGUS22026-09-06 01:05:2627.68338-82.71131298°49km/h24786m-15.8m/s-55.8°C0%0hPa0V00:00:0000:00:0000:00:00
ARGUS22026-09-06 01:05:0627.68213-82.70939303°26km/h25122m-16.9m/s-55.7°C0%0hPa0V00:00:0000:00:0000:00:00
ARGUS22026-09-06 01:04:4527.68200-82.70775270°40km/h25463m-17.8m/s-54.8°C0%0hPa0V00:00:0000:00:0000:00:00
ARGUS22026-09-06 01:04:2527.68156-82.70508260°46km/h25823m-18.9m/s-51.5°C0%0hPa0V00:00:0000:00:0000:00:00
ARGUS22026-09-06 01:04:0427.68158-82.70317253°47km/h26190m-17.4m/s-50.3°C0%0hPa0V00:00:0000:00:0000:00:00
ARGUS22026-09-06 01:03:2227.68294-82.69670242°35km/h26970m-16.8m/s-47.3°C0%0hPa0V00:00:0000:00:0000:00:00
ARGUS22026-09-06 01:03:0227.68360-82.69313287°99km/h27332m-18.2m/s-46.9°C0%0hPa0V00:00:0000:00:0000:00:00
ARGUS22026-09-06 01:02:4127.68326-82.69047255°80km/h27724m-18.6m/s-45.2°C0%0hPa0V00:00:0000:00:0000:00:00
ARGUS22026-09-06 01:02:2127.68338-82.68882183°51km/h28114m-21.6m/s-45.2°C0%0hPa0V00:00:0000:00:0000:00:00
ARGUS22026-09-06 01:02:0127.68504-82.68768179°58km/h28546m-21.0m/s-46.0°C0%0hPa0V00:00:0000:00:0000:00:00
ARGUS22026-09-06 01:01:4027.68681-82.68462249°31km/h28985m-23.5m/s-46.7°C0%0hPa0V00:00:0000:00:0000:00:00
ARGUS22026-09-06 01:01:2027.68719-82.68116268°89km/h29472m-22.7m/s-46.8°C0%0hPa0V00:00:0000:00:0000:00:00
ARGUS22026-09-06 01:00:5927.68764-82.67850271°47km/h29969m-25.0m/s-44.6°C0%0hPa0V00:00:0000:00:0000:00:00
ARGUS22026-09-06 01:00:3927.68879-82.67560240°62km/h30507m-25.9m/s-43.5°C0%0hPa0V00:00:0000:00:0000:00:00
ARGUS22026-09-06 01:00:1827.68938-82.67280274°62km/h31042m-26.1m/s-43.4°C0%0hPa0V00:00:0000:00:0000:00:00
ARGUS22026-09-06 00:59:5827.68954-82.66971259°51km/h31609m-27.0m/s-43.9°C0%0hPa0V00:00:0000:00:0000:00:00
ARGUS22026-09-06 00:59:3627.68975-82.66708252°51km/h32205m-28.6m/s-42.6°C0%0hPa0V00:00:0000:00:0000:00:00
ARGUS22026-09-06 00:59:1527.69054-82.66464251°49km/h32831m-31.2m/s-41.9°C0%0hPa0V00:00:0000:00:0000:00:00
ARGUS22026-09-06 00:58:5427.69117-82.66107274°46km/h33529m-31.8m/s-42.8°C0%0hPa0V00:00:0000:00:0000:00:00
ARGUS22026-09-06 00:58:3427.69108-82.65822268°18km/h34179m-31.0m/s-41.2°C0%0hPa0V00:00:0000:00:0000:00:00
ARGUS22026-09-06 00:58:1227.69153-82.65466270°68km/h34984m-47.2m/s-38.9°C0%0hPa0V00:00:0000:00:0000:00:00
ARGUS22026-09-06 00:57:5127.69097-82.65210237°62km/h35326m7.7m/s-38.9°C0%0hPa0V00:00:0000:00:0000:00:00
ARGUS22026-09-06 00:57:3027.69076-82.64925330°38km/h35195m2.5m/s-39.1°C0%0hPa0V00:00:0000:00:0000:00:00
ARGUS22026-09-06 00:57:1027.69029-82.64558291°115km/h35057m5.0m/s-39.2°C0%0hPa0V00:00:0000:00:0000:00:00
ARGUS22026-09-06 00:56:4827.69009-82.64252234°78km/h34920m2.2m/s-39.2°C0%0hPa0V00:00:0000:00:0000:00:00
ARGUS22026-09-06 00:56:2827.68988-82.63960303°88km/h34764m3.6m/s-39.0°C0%0hPa0V00:00:0000:00:0000:00:00
ARGUS22026-09-06 00:56:0727.69001-82.63614273°111km/h34623m6.3m/s-39.1°C0%0hPa0V00:00:0000:00:0000:00:00
ARGUS22026-09-06 00:55:4727.69064-82.63208211°31km/h34461m4.0m/s-39.0°C0%0hPa0V00:00:0000:00:0000:00:00
ARGUS22026-09-06 00:55:0327.69122-82.62524311°4km/h34152m1.8m/s-37.6°C0%0hPa0V00:00:0000:00:0000:00:00
ARGUS22026-09-06 00:54:4027.69086-82.62253255°84km/h34013m4.0m/s-38.6°C0%0hPa0V00:00:0000:00:0000:00:00
ARGUS22026-09-06 00:54:1927.69075-82.62023237°38km/h33881m1.1m/s-39.7°C0%0hPa0V00:00:0000:00:0000:00:00
ARGUS22026-09-06 00:53:5427.69050-82.61617234°80km/h33775m4.8m/s-40.3°C0%0hPa0V00:00:0000:00:0000:00:00
ARGUS22026-09-06 00:53:3427.69098-82.61317246°49km/h33663m1.1m/s-41.6°C0%0hPa0V00:00:0000:00:0000:00:00
ARGUS22026-09-06 00:53:1127.69090-82.60953253°53km/h33568m8.3m/s-42.1°C0%0hPa0V00:00:0000:00:0000:00:00
ARGUS22026-09-06 00:52:4927.69145-82.60673233°38km/h33469m-0.4m/s-42.0°C0%0hPa0V00:00:0000:00:0000:00:00
ARGUS22026-09-06 00:52:2727.69197-82.60330271°91km/h33354m1.6m/s-42.3°C0%0hPa0V00:00:0000:00:0000:00:00
ARGUS22026-09-06 00:52:0727.69297-82.59949233°80km/h33245m10.3m/s-41.9°C0%0hPa0V00:00:0000:00:0000:00:00
ARGUS22026-09-06 00:51:4727.69412-82.59552244°71km/h33121m5.5m/s-42.5°C0%0hPa0V00:00:0000:00:0000:00:00
ARGUS22026-09-06 00:51:2627.69554-82.59162267°84km/h32983m2.6m/s-42.2°C0%0hPa0V00:00:0000:00:0000:00:00
ARGUS22026-09-06 00:51:0427.69692-82.58845215°58km/h32844m12.4m/s-41.9°C0%0hPa0V00:00:0000:00:0000:00:00
ARGUS22026-09-06 00:50:4427.69790-82.58644295°26km/h32702m5.9m/s-41.8°C0%0hPa0V00:00:0000:00:0000:00:00
ARGUS22026-09-06 00:50:2027.69867-82.58336249°64km/h32543m6.0m/s-42.1°C0%0hPa0V00:00:0000:00:0000:00:00
ARGUS22026-09-06 00:50:0027.69984-82.58063219°33km/h32400m8.5m/s-41.9°C0%0hPa0V00:00:0000:00:0000:00:00
ARGUS22026-09-06 00:49:4027.70115-82.57796260°75km/h32255m9.4m/s-41.8°C0%0hPa0V00:00:0000:00:0000:00:00
ARGUS22026-09-06 00:49:1927.70219-82.57506237°68km/h32127m5.9m/s-41.5°C0%0hPa0V00:00:0000:00:0000:00:00
ARGUS22026-09-06 00:48:5827.70299-82.57239258°18km/h31979m3.5m/s-41.4°C0%0hPa0V00:00:0000:00:0000:00:00
ARGUS22026-09-06 00:48:3927.70323-82.56962272°73km/h31844m5.6m/s-41.9°C0%0hPa0V00:00:0000:00:0000:00:00
ARGUS22026-09-06 00:48:1827.70332-82.56687245°22km/h31701m2.4m/s-42.4°C0%0hPa0V00:00:0000:00:0000:00:00
ARGUS22026-09-06 00:47:5727.70330-82.56440275°60km/h31564m9.9m/s-42.4°C0%0hPa0V00:00:0000:00:0000:00:00
ARGUS22026-09-06 00:47:3727.70343-82.56157252°38km/h31415m8.5m/s-42.4°C0%0hPa0V00:00:0000:00:0000:00:00
ARGUS22026-09-06 00:47:1627.70349-82.55911274°64km/h31273m8.2m/s-42.2°C0%0hPa0V00:00:0000:00:0000:00:00
ARGUS22026-09-06 00:46:5627.70368-82.55616250°58km/h31120m7.7m/s-41.9°C0%0hPa0V00:00:0000:00:0000:00:00
ARGUS22026-09-06 00:46:3527.70398-82.55347272°49km/h30964m8.1m/s-42.3°C0%0hPa0V00:00:0000:00:0000:00:00
ARGUS22026-09-06 00:45:5427.70349-82.54819275°58km/h30662m9.9m/s-42.9°C0%0hPa0V00:00:0000:00:0000:00:00
ARGUS22026-09-06 00:45:3327.70377-82.54542244°53km/h30530m11.3m/s-43.2°C0%0hPa0V00:00:0000:00:0000:00:00
ARGUS22026-09-06 00:45:1327.70454-82.54262257°53km/h30391m8.4m/s-43.5°C0%0hPa0V00:00:0000:00:0000:00:00
ARGUS22026-09-06 00:44:5227.70484-82.53965253°42km/h30271m9.4m/s-43.9°C0%0hPa0V00:00:0000:00:0000:00:00
ARGUS22026-09-06 00:44:3127.70458-82.53694295°60km/h30140m7.7m/s-44.4°C0%0hPa0V00:00:0000:00:0000:00:00
ARGUS22026-09-06 00:44:1127.70374-82.53419268°47km/h30022m8.9m/s-45.3°C0%0hPa0V00:00:0000:00:0000:00:00
ARGUS22026-09-06 00:43:5127.70348-82.53130270°57km/h29895m5.8m/s-46.4°C0%0hPa0V00:00:0000:00:0000:00:00
ARGUS22026-09-06 00:43:3027.70325-82.52746247°55km/h29772m-0.1m/s-47.0°C0%0hPa0V00:00:0000:00:0000:00:00
ARGUS22026-09-06 00:43:0827.70308-82.52408259°46km/h29644m10.4m/s-47.7°C0%0hPa0V00:00:0000:00:0000:00:00
ARGUS22026-09-06 00:42:4727.70330-82.52145252°84km/h29523m3.9m/s-47.4°C0%0hPa0V00:00:0000:00:0000:00:00
ARGUS22026-09-06 00:42:2727.70316-82.51810268°84km/h29401m6.0m/s-47.0°C0%0hPa0V00:00:0000:00:0000:00:00
ARGUS22026-09-06 00:42:0527.70325-82.51414267°78km/h29285m4.8m/s-47.6°C0%0hPa0V00:00:0000:00:0000:00:00
ARGUS22026-09-06 00:41:4427.70419-82.51003252°62km/h29162m9.0m/s-49.9°C0%0hPa0V00:00:0000:00:0000:00:00
ARGUS22026-09-06 00:41:2327.70583-82.50601242°62km/h29030m8.4m/s-49.1°C0%0hPa0V00:00:0000:00:0000:00:00
ARGUS22026-09-06 00:41:0327.70764-82.50271271°60km/h28887m5.3m/s-48.1°C0%0hPa0V00:00:0000:00:0000:00:00
ARGUS22026-09-06 00:40:4227.70949-82.49991237°42km/h28753m9.0m/s-47.7°C0%0hPa0V00:00:0000:00:0000:00:00
ARGUS22026-09-06 00:40:2227.71136-82.49808225°35km/h28614m8.6m/s-47.3°C0%0hPa0V00:00:0000:00:0000:00:00
ARGUS22026-09-06 00:40:0127.71282-82.49704220°44km/h28477m8.8m/s-46.8°C0%0hPa0V00:00:0000:00:0000:00:00
ARGUS22026-09-06 00:39:4127.71400-82.49615220°22km/h28335m9.2m/s-46.8°C0%0hPa0V00:00:0000:00:0000:00:00
ARGUS22026-09-06 00:39:2027.71476-82.49516291°24km/h28188m6.7m/s-46.9°C0%0hPa0V00:00:0000:00:0000:00:00
ARGUS22026-09-06 00:39:0027.71516-82.49364255°24km/h28035m6.9m/s-46.7°C0%0hPa0V00:00:0000:00:0000:00:00
ARGUS22026-09-06 00:38:3927.71555-82.49167259°55km/h27893m5.4m/s-46.5°C0%0hPa0V00:00:0000:00:0000:00:00
ARGUS22026-09-06 00:38:1827.71522-82.48956257°38km/h27751m8.3m/s-47.6°C0%0hPa0V00:00:0000:00:0000:00:00
ARGUS22026-09-06 00:37:5827.71510-82.48731264°42km/h27607m7.1m/s-48.1°C0%0hPa0V00:00:0000:00:0000:00:00
ARGUS22026-09-06 00:37:3727.71505-82.48514298°51km/h27481m4.7m/s-49.0°C0%0hPa0V00:00:0000:00:0000:00:00
ARGUS22026-09-06 00:37:1627.71502-82.48201286°46km/h27344m6.1m/s-49.2°C0%0hPa0V00:00:0000:00:0000:00:00
ARGUS22026-09-06 00:36:5627.71539-82.47912267°68km/h27224m5.9m/s-48.7°C0%0hPa0V00:00:0000:00:0000:00:00
ARGUS22026-09-06 00:36:3627.71625-82.47635256°66km/h27088m5.4m/s-48.3°C0%0hPa0V00:00:0000:00:0000:00:00
ARGUS22026-09-06 00:36:1527.71714-82.47354255°77km/h26971m6.8m/s-47.8°C0%0hPa0V00:00:0000:00:0000:00:00
ARGUS22026-09-06 00:35:5427.71842-82.47046266°60km/h26851m7.1m/s-48.3°C0%0hPa0V00:00:0000:00:0000:00:00
ARGUS22026-09-06 00:35:3427.71878-82.46812269°40km/h26732m5.8m/s-48.6°C0%0hPa0V00:00:0000:00:0000:00:00
ARGUS22026-09-06 00:35:1427.71895-82.46624283°42km/h26610m8.3m/s-49.0°C0%0hPa0V00:00:0000:00:0000:00:00
ARGUS22026-09-06 00:34:5327.71940-82.46423248°31km/h26483m6.9m/s-49.9°C0%0hPa0V00:00:0000:00:0000:00:00
ARGUS22026-09-06 00:34:3327.72029-82.46252233°26km/h26345m6.5m/s-50.0°C0%0hPa0V00:00:0000:00:0000:00:00
ARGUS22026-09-06 00:34:1227.72105-82.46104221°24km/h26209m6.8m/s-50.1°C0%0hPa0V00:00:0000:00:0000:00:00
ARGUS22026-09-06 00:33:5227.72160-82.45957183°9km/h26067m6.6m/s-50.0°C0%0hPa0V00:00:0000:00:0000:00:00
ARGUS22026-09-06 00:33:3227.72193-82.45879276°2km/h25932m8.2m/s-50.8°C0%0hPa0V00:00:0000:00:0000:00:00
ARGUS22026-09-06 00:33:1127.72180-82.45737249°38km/h25794m6.3m/s-51.3°C0%0hPa0V00:00:0000:00:0000:00:00
ARGUS22026-09-06 00:32:5027.72182-82.45537268°37km/h25662m5.5m/s-53.8°C0%0hPa0V00:00:0000:00:0000:00:00
ARGUS22026-09-06 00:32:2927.72166-82.45311277°44km/h25546m4.6m/s-54.5°C0%0hPa0V00:00:0000:00:0000:00:00
ARGUS22026-09-06 00:32:0927.72178-82.45126256°31km/h25435m3.8m/s-54.8°C0%0hPa0V00:00:0000:00:0000:00:00
ARGUS22026-09-06 00:31:4827.72228-82.45021237°22km/h25331m5.9m/s-55.3°C0%0hPa0V00:00:0000:00:0000:00:00
ARGUS22026-09-06 00:31:2827.72230-82.44908280°27km/h25227m5.0m/s-55.3°C0%0hPa0V00:00:0000:00:0000:00:00
ARGUS22026-09-06 00:31:0727.72196-82.44807307°37km/h25125m5.6m/s-55.1°C0%0hPa0V00:00:0000:00:0000:00:00
ARGUS22026-09-06 00:30:4727.72109-82.44701355°35km/h25012m4.4m/s-55.3°C0%0hPa0V00:00:0000:00:0000:00:00
ARGUS22026-09-06 00:30:2627.71972-82.44605327°42km/h24904m4.1m/s-55.0°C0%0hPa0V00:00:0000:00:0000:00:00
ARGUS22026-09-06 00:30:0527.71841-82.44440310°64km/h24781m5.0m/s-54.6°C0%0hPa0V00:00:0000:00:0000:00:00
ARGUS22026-09-06 00:29:4527.71722-82.44226297°44km/h24665m6.5m/s-54.0°C0%0hPa0V00:00:0000:00:0000:00:00
ARGUS22026-09-06 00:29:2527.71614-82.43969300°38km/h24533m4.6m/s-54.1°C0%0hPa0V00:00:0000:00:0000:00:00
ARGUS22026-09-06 00:29:0427.71541-82.43736318°40km/h24404m5.0m/s-53.6°C0%0hPa0V00:00:0000:00:0000:00:00
ARGUS22026-09-06 00:28:4427.71440-82.43494299°42km/h24277m4.3m/s-53.7°C0%0hPa0V00:00:0000:00:0000:00:00
ARGUS22026-09-06 00:28:2327.71378-82.43225280°51km/h24160m4.6m/s-53.1°C0%0hPa0V00:00:0000:00:0000:00:00
ARGUS22026-09-06 00:28:0327.71353-82.42902274°51km/h24039m5.9m/s-53.9°C0%0hPa0V00:00:0000:00:0000:00:00
ARGUS22026-09-06 00:27:4127.71346-82.42608278°51km/h23925m5.8m/s-53.8°C0%0hPa0V00:00:0000:00:0000:00:00
ARGUS22026-09-06 00:27:2127.71332-82.42352282°44km/h23823m5.6m/s-53.8°C0%0hPa0V00:00:0000:00:0000:00:00
ARGUS22026-09-06 00:27:0027.71287-82.42114284°40km/h23715m4.0m/s-53.9°C0%0hPa0V00:00:0000:00:0000:00:00
ARGUS22026-09-06 00:26:4027.71218-82.41897288°49km/h23616m4.4m/s-54.0°C0%0hPa0V00:00:0000:00:0000:00:00
ARGUS22026-09-06 00:26:2027.71179-82.41655298°51km/h23512m6.5m/s-54.6°C0%0hPa0V00:00:0000:00:0000:00:00
ARGUS22026-09-06 00:25:5927.71153-82.41401274°49km/h23407m6.1m/s-54.8°C0%0hPa0V00:00:0000:00:0000:00:00
ARGUS22026-09-06 00:25:3927.71234-82.41114255°62km/h23283m5.2m/s-55.4°C0%0hPa0V00:00:0000:00:0000:00:00
ARGUS22026-09-06 00:25:1827.71362-82.40837254°55km/h23156m5.3m/s-54.7°C0%0hPa0V00:00:0000:00:0000:00:00
ARGUS22026-09-06 00:24:5827.71465-82.40594245°53km/h23017m7.0m/s-54.1°C0%0hPa0V00:00:0000:00:0000:00:00
ARGUS22026-09-06 00:24:3727.71530-82.40407253°37km/h22887m7.6m/s-54.6°C0%0hPa0V00:00:0000:00:0000:00:00
ARGUS22026-09-06 00:24:1627.71594-82.40227233°38km/h22751m6.8m/s-53.9°C0%0hPa0V00:00:0000:00:0000:00:00
ARGUS22026-09-06 00:23:5627.71698-82.40058218°46km/h22633m6.4m/s-54.1°C0%0hPa0V00:00:0000:00:0000:00:00
ARGUS22026-09-06 00:23:3627.71811-82.39922223°27km/h22517m6.1m/s-54.0°C0%0hPa0V00:00:0000:00:0000:00:00
ARGUS22026-09-06 00:23:1527.71858-82.39780243°22km/h22414m5.4m/s-54.9°C0%0hPa0V00:00:0000:00:0000:00:00
ARGUS22026-09-06 00:22:5527.71936-82.39623284°27km/h22313m3.7m/s-55.7°C0%0hPa0V00:00:0000:00:0000:00:00
ARGUS22026-09-06 00:22:3327.71974-82.39447273°38km/h22221m5.0m/s-56.3°C0%0hPa0V00:00:0000:00:0000:00:00
ARGUS22026-09-06 00:22:1327.72010-82.39246255°47km/h22131m4.0m/s-56.5°C0%0hPa0V00:00:0000:00:0000:00:00
ARGUS22026-09-06 00:21:5227.72050-82.38997268°53km/h22032m2.5m/s-57.0°C0%0hPa0V00:00:0000:00:0000:00:00
ARGUS22026-09-06 00:21:3227.72101-82.38758284°49km/h21932m4.7m/s-57.1°C0%0hPa0V00:00:0000:00:0000:00:00
ARGUS22026-09-06 00:21:1127.72112-82.38486270°47km/h21825m5.6m/s-56.9°C0%0hPa0V00:00:0000:00:0000:00:00
ARGUS22026-09-06 00:20:5127.72151-82.38226246°46km/h21714m5.4m/s-57.0°C0%0hPa0V00:00:0000:00:0000:00:00
ARGUS22026-09-06 00:20:3127.72197-82.37972267°57km/h21595m6.3m/s-57.1°C0%0hPa0V00:00:0000:00:0000:00:00
ARGUS22026-09-06 00:20:1027.72239-82.37716265°42km/h21479m6.2m/s-57.2°C0%0hPa0V00:00:0000:00:0000:00:00
ARGUS22026-09-06 00:19:4927.72278-82.37455263°38km/h21359m6.1m/s-57.7°C0%0hPa0V00:00:0000:00:0000:00:00
ARGUS22026-09-06 00:19:2927.72326-82.37253263°31km/h21254m6.3m/s-57.9°C0%0hPa0V00:00:0000:00:0000:00:00
ARGUS22026-09-06 00:19:0827.72398-82.37083281°31km/h21150m3.3m/s-58.3°C0%0hPa0V00:00:0000:00:0000:00:00
ARGUS22026-09-06 00:18:4827.72428-82.36947271°31km/h21056m4.3m/s-58.9°C0%0hPa0V00:00:0000:00:0000:00:00
ARGUS22026-09-06 00:18:2727.72423-82.36758245°18km/h20956m5.8m/s-59.7°C0%0hPa0V00:00:0000:00:0000:00:00
ARGUS22026-09-06 00:18:0727.72445-82.36611219°20km/h20861m2.6m/s-60.0°C0%0hPa0V00:00:0000:00:0000:00:00
ARGUS22026-09-06 00:17:4727.72456-82.36468273°24km/h20769m5.3m/s-60.4°C0%0hPa0V00:00:0000:00:0000:00:00
ARGUS22026-09-06 00:17:2527.72400-82.36322307°37km/h20678m4.1m/s-60.0°C0%0hPa0V00:00:0000:00:0000:00:00
ARGUS22026-09-06 00:17:0527.72334-82.36169301°38km/h20587m5.2m/s-59.7°C0%0hPa0V00:00:0000:00:0000:00:00
ARGUS22026-09-06 00:16:4427.72294-82.35969269°26km/h20494m5.1m/s-59.6°C0%0hPa0V00:00:0000:00:0000:00:00
ARGUS22026-09-06 00:16:2427.72301-82.35794244°20km/h20405m4.2m/s-60.5°C0%0hPa0V00:00:0000:00:0000:00:00
ARGUS22026-09-06 00:16:0327.72336-82.35692274°20km/h20314m3.7m/s-61.7°C0%0hPa0V00:00:0000:00:0000:00:00
ARGUS22026-09-06 00:15:4327.72329-82.35596294°22km/h20225m5.4m/s-61.9°C0%0hPa0V00:00:0000:00:0000:00:00
ARGUS22026-09-06 00:15:2327.72304-82.35470292°16km/h20129m4.9m/s-62.1°C0%0hPa0V00:00:0000:00:0000:00:00
ARGUS22026-09-06 00:14:4227.72212-82.35324309°7km/h19931m4.5m/s-62.1°C0%0hPa0V00:00:0000:00:0000:00:00
ARGUS22026-09-06 00:14:2127.72160-82.35292359°15km/h19833m5.0m/s-62.9°C0%0hPa0V00:00:0000:00:0000:00:00
ARGUS22026-09-06 00:14:0027.72052-82.35269340°26km/h19721m6.2m/s-62.8°C0%0hPa0V00:00:0000:00:0000:00:00
ARGUS22026-09-06 00:13:4127.71934-82.35228334°33km/h19617m4.5m/s-62.6°C0%0hPa0V00:00:0000:00:0000:00:00
ARGUS22026-09-06 00:13:2027.71825-82.35140322°24km/h19513m4.2m/s-63.0°C0%0hPa0V00:00:0000:00:0000:00:00
ARGUS22026-09-06 00:12:5927.71795-82.35048274°24km/h19409m5.3m/s-63.2°C0%0hPa0V00:00:0000:00:0000:00:00
ARGUS22026-09-06 00:12:3927.71801-82.34973330°5km/h19305m5.9m/s-63.9°C0%0hPa0V00:00:0000:00:0000:00:00
ARGUS22026-09-06 00:12:1827.71767-82.34888288°18km/h19202m4.4m/s-64.0°C0%0hPa0V00:00:0000:00:0000:00:00
ARGUS22026-09-06 00:11:5727.71756-82.34762246°16km/h19110m4.4m/s-64.6°C0%0hPa0V00:00:0000:00:0000:00:00
ARGUS22026-09-06 00:11:3627.71836-82.34658223°29km/h19006m5.8m/s-65.3°C0%0hPa0V00:00:0000:00:0000:00:00
ARGUS22026-09-06 00:10:5627.71985-82.34592146°18km/h18810m4.7m/s-66.7°C0%0hPa0V00:00:0000:00:0000:00:00
ARGUS22026-09-06 00:10:3527.72041-82.34635127°9km/h18700m3.7m/s-67.4°C0%0hPa0V00:00:0000:00:0000:00:00
ARGUS22026-09-06 00:10:1527.72018-82.34651330°11km/h18582m5.7m/s-67.1°C0%0hPa0V00:00:0000:00:0000:00:00
ARGUS22026-09-06 00:09:5427.71959-82.34589304°18km/h18469m4.6m/s-66.6°C0%0hPa0V00:00:0000:00:0000:00:00
ARGUS22026-09-06 00:09:3327.71879-82.34473310°24km/h18359m5.4m/s-66.0°C0%0hPa0V00:00:0000:00:0000:00:00
ARGUS22026-09-06 00:09:1327.71813-82.34306277°29km/h18260m4.3m/s-66.0°C0%0hPa0V00:00:0000:00:0000:00:00
ARGUS22026-09-06 00:08:5327.71790-82.34075285°49km/h18151m6.7m/s-66.3°C0%0hPa0V00:00:0000:00:0000:00:00
ARGUS22026-09-06 00:08:3227.71844-82.33857214°40km/h18026m7.5m/s-66.8°C0%0hPa0V00:00:0000:00:0000:00:00
ARGUS22026-09-06 00:08:1127.71999-82.33714206°57km/h17878m4.7m/s-66.4°C0%0hPa0V00:00:0000:00:0000:00:00
ARGUS22026-09-06 00:07:5127.72205-82.33644177°35km/h17771m6.4m/s-66.5°C0%0hPa0V00:00:0000:00:0000:00:00
ARGUS22026-09-06 00:07:3127.72367-82.33651182°26km/h17666m3.9m/s-68.2°C0%0hPa0V00:00:0000:00:0000:00:00
ARGUS22026-09-06 00:07:1027.72493-82.33656211°27km/h17571m4.8m/s-68.9°C0%0hPa0V00:00:0000:00:0000:00:00
ARGUS22026-09-06 00:06:5027.72615-82.33593213°24km/h17471m5.3m/s-69.3°C0%0hPa0V00:00:0000:00:0000:00:00
ARGUS22026-09-06 00:06:2927.72716-82.33543199°16km/h17371m5.7m/s-68.9°C0%0hPa0V00:00:0000:00:0000:00:00
ARGUS22026-09-06 00:06:1027.72814-82.33514207°20km/h17279m5.0m/s-69.5°C0%0hPa0V00:00:0000:00:0000:00:00
ARGUS22026-09-06 00:05:4827.72941-82.33429204°29km/h17175m5.6m/s-70.2°C0%0hPa0V00:00:0000:00:0000:00:00
ARGUS22026-09-06 00:05:2727.73123-82.33349207°38km/h17086m4.7m/s-70.0°C0%0hPa0V00:00:0000:00:0000:00:00
ARGUS22026-09-06 00:05:0727.73328-82.33306192°35km/h16987m6.0m/s-69.5°C0%0hPa0V00:00:0000:00:0000:00:00
ARGUS22026-09-06 00:04:4727.73485-82.33283188°27km/h16887m5.2m/s-69.4°C0%0hPa0V00:00:0000:00:0000:00:00
ARGUS22026-09-06 00:04:2627.73573-82.33310134°22km/h16792m5.7m/s-69.9°C0%0hPa0V00:00:0000:00:0000:00:00
ARGUS22026-09-06 00:04:0627.73623-82.33400146°11km/h16709m4.2m/s-71.2°C0%0hPa0V00:00:0000:00:0000:00:00
ARGUS22026-09-06 00:03:4527.73684-82.33456147°24km/h16627m3.5m/s-72.1°C0%0hPa0V00:00:0000:00:0000:00:00
ARGUS22026-09-06 00:03:2627.73738-82.33492164°18km/h16543m3.3m/s-72.5°C0%0hPa0V00:00:0000:00:0000:00:00
ARGUS22026-09-06 00:03:1327.73758-82.3351539°5km/h16455m3.5m/s-73.0°C0%0hPa0V00:00:0000:00:0000:00:00
ARGUS22026-09-06 00:02:5327.73790-82.33492284°11km/h16366m4.1m/s-73.5°C0%0hPa0V00:00:0000:00:0000:00:00
ARGUS22026-09-06 00:02:2427.73856-82.33436226°24km/h16270m5.7m/s-73.2°C0%0hPa0V00:00:0000:00:0000:00:00
ARGUS22026-09-06 00:01:4527.74073-82.33351190°16km/h16075m5.9m/s-72.2°C0%0hPa0V00:00:0000:00:0000:00:00
ARGUS22026-09-06 00:01:2427.74145-82.33356172°16km/h15972m6.4m/s-71.6°C0%0hPa0V00:00:0000:00:0000:00:00
ARGUS22026-09-06 00:01:0127.74181-82.3338038°13km/h15874m3.8m/s-70.9°C0%0hPa0V00:00:0000:00:0000:00:00
ARGUS22026-09-06 00:00:4427.74177-82.3340813°13km/h15769m5.8m/s-70.1°C0%0hPa0V00:00:0000:00:0000:00:00
ARGUS22026-09-06 00:00:2127.74147-82.3344040°18km/h15671m4.9m/s-69.4°C0%0hPa0V00:00:0000:00:0000:00:00
ARGUS22026-09-05 23:59:5927.74072-82.3346216°33km/h15576m4.7m/s-69.6°C0%0hPa0V00:00:0000:00:0000:00:00
ARGUS22026-09-05 23:59:3827.73990-82.33418339°18km/h15474m5.0m/s-70.0°C0%0hPa0V00:00:0000:00:0000:00:00
ARGUS22026-09-05 23:59:1827.73902-82.33346329°22km/h15382m4.8m/s-69.9°C0%0hPa0V00:00:0000:00:0000:00:00
ARGUS22026-09-05 23:58:5727.73801-82.33251342°27km/h15293m5.4m/s-69.4°C0%0hPa0V00:00:0000:00:0000:00:00
ARGUS22026-09-05 23:58:3727.73704-82.33155320°20km/h15201m3.9m/s-69.0°C0%0hPa0V00:00:0000:00:0000:00:00
ARGUS22026-09-05 23:58:1627.73620-82.33066306°22km/h15110m6.1m/s-68.4°C0%0hPa0V00:00:0000:00:0000:00:00
ARGUS22026-09-05 23:57:5627.73556-82.32957300°18km/h15013m5.3m/s-67.8°C0%0hPa0V00:00:0000:00:0000:00:00
ARGUS22026-09-05 23:57:3627.73490-82.32861328°15km/h14918m5.8m/s-67.2°C0%0hPa0V00:00:0000:00:0000:00:00
ARGUS22026-09-05 23:57:1527.73404-82.32761317°16km/h14817m5.1m/s-66.3°C0%0hPa0V00:00:0000:00:0000:00:00
ARGUS22026-09-05 23:56:5527.73317-82.32673306°27km/h14722m4.9m/s-65.7°C0%0hPa0V00:00:0000:00:0000:00:00
ARGUS22026-09-05 23:56:3427.73243-82.32585314°22km/h14622m4.1m/s-65.2°C0%0hPa0V00:00:0000:00:0000:00:00
ARGUS22026-09-05 23:56:1327.73195-82.32531320°13km/h14524m4.5m/s-64.5°C0%0hPa0V00:00:0000:00:0000:00:00
ARGUS22026-09-05 23:55:5227.73170-82.32479306°7km/h14431m4.3m/s-63.8°C0%0hPa0V00:00:0000:00:0000:00:00
ARGUS22026-09-05 23:55:3227.73136-82.32410321°15km/h14336m5.2m/s-63.3°C0%0hPa0V00:00:0000:00:0000:00:00
ARGUS22026-09-05 23:55:1127.73092-82.32348334°15km/h14248m3.8m/s-63.0°C0%0hPa0V00:00:0000:00:0000:00:00
ARGUS22026-09-05 23:54:5127.73040-82.32293333°13km/h14159m4.2m/s-62.9°C0%0hPa0V00:00:0000:00:0000:00:00
ARGUS22026-09-05 23:54:3027.72981-82.32271334°4km/h14077m3.7m/s-62.9°C0%0hPa0V00:00:0000:00:0000:00:00
ARGUS22026-09-05 23:54:1027.72911-82.32256356°18km/h13991m4.9m/s-62.4°C0%0hPa0V00:00:0000:00:0000:00:00
ARGUS22026-09-05 23:53:4927.72832-82.3225810°13km/h13911m4.4m/s-61.9°C0%0hPa0V00:00:0000:00:0000:00:00
ARGUS22026-09-05 23:53:2927.72748-82.3225617°13km/h13829m3.7m/s-61.3°C0%0hPa0V00:00:0000:00:0000:00:00
ARGUS22026-09-05 23:53:0827.72656-82.3226216°15km/h13746m3.0m/s-60.6°C0%0hPa0V00:00:0000:00:0000:00:00
ARGUS22026-09-05 23:52:4827.72544-82.32269354°20km/h13661m3.3m/s-60.2°C0%0hPa0V00:00:0000:00:0000:00:00
ARGUS22026-09-05 23:52:2727.72447-82.32236324°26km/h13574m4.6m/s-59.8°C0%0hPa0V00:00:0000:00:0000:00:00
ARGUS22026-09-05 23:52:0727.72358-82.32177313°20km/h13484m5.2m/s-59.2°C0%0hPa0V00:00:0000:00:0000:00:00
ARGUS22026-09-05 23:51:4627.72289-82.32114336°24km/h13391m3.2m/s-58.5°C0%0hPa0V00:00:0000:00:0000:00:00
ARGUS22026-09-05 23:51:2627.72221-82.32043316°20km/h13298m4.2m/s-57.8°C0%0hPa0V00:00:0000:00:0000:00:00
ARGUS22026-09-05 23:51:0527.72155-82.31969313°20km/h13203m5.3m/s-57.0°C0%0hPa0V00:00:0000:00:0000:00:00
ARGUS22026-09-05 23:50:4527.72095-82.31899331°22km/h13105m3.6m/s-56.3°C0%0hPa0V00:00:0000:00:0000:00:00
ARGUS22026-09-05 23:50:2327.72027-82.31827323°18km/h13008m5.0m/s-55.5°C0%0hPa0V00:00:0000:00:0000:00:00
ARGUS22026-09-05 23:50:0327.71955-82.31753311°15km/h12913m3.5m/s-54.8°C0%0hPa0V00:00:0000:00:0000:00:00
ARGUS22026-09-05 23:49:4227.71881-82.31664303°27km/h12810m4.9m/s-54.1°C0%0hPa0V00:00:0000:00:0000:00:00
ARGUS22026-09-05 23:49:2227.71802-82.31561322°26km/h12712m6.0m/s-53.4°C0%0hPa0V00:00:0000:00:0000:00:00
ARGUS22026-09-05 23:49:0227.71713-82.31479358°37km/h12601m4.1m/s-52.7°C0%0hPa0V00:00:0000:00:0000:00:00
ARGUS22026-09-05 23:48:4127.71639-82.31419319°16km/h12484m4.1m/s-51.7°C0%0hPa0V00:00:0000:00:0000:00:00
ARGUS22026-09-05 23:48:2027.71562-82.31362287°9km/h12381m4.7m/s-50.8°C0%0hPa0V00:00:0000:00:0000:00:00
ARGUS22026-09-05 23:48:0027.71490-82.31311356°15km/h12268m7.3m/s-50.0°C0%0hPa0V00:00:0000:00:0000:00:00
ARGUS22026-09-05 23:47:4027.71424-82.31305330°9km/h12163m4.8m/s-49.3°C0%0hPa0V00:00:0000:00:0000:00:00
ARGUS22026-09-05 23:47:1927.71384-82.31273349°4km/h12065m4.2m/s-48.5°C0%0hPa0V00:00:0000:00:0000:00:00
ARGUS22026-09-05 23:46:5927.71349-82.31264354°7km/h11958m6.0m/s-47.5°C0%0hPa0V00:00:0000:00:0000:00:00
ARGUS22026-09-05 23:46:3827.71320-82.3126813°11km/h11856m4.4m/s-46.7°C0%0hPa0V00:00:0000:00:0000:00:00
ARGUS22026-09-05 23:46:1827.71280-82.31273323°7km/h11752m4.2m/s-45.7°C0%0hPa0V00:00:0000:00:0000:00:00
ARGUS22026-09-05 23:45:5727.71242-82.3127624°4km/h11657m5.1m/s-44.9°C0%0hPa0V00:00:0000:00:0000:00:00
ARGUS22026-09-05 23:45:3727.71211-82.31277331°11km/h11558m4.2m/s-44.0°C0%0hPa0V00:00:0000:00:0000:00:00
ARGUS22026-09-05 23:45:1627.71175-82.312847km/h11456m5.2m/s-43.2°C0%0hPa0V00:00:0000:00:0000:00:00
ARGUS22026-09-05 23:44:5527.71143-82.31287349°11km/h11360m4.4m/s-42.4°C0%0hPa0V00:00:0000:00:0000:00:00
ARGUS22026-09-05 23:44:3527.71103-82.3127936°15km/h11265m3.9m/s-41.7°C0%0hPa0V00:00:0000:00:0000:00:00
ARGUS22026-09-05 23:44:1427.71071-82.3129211°9km/h11175m4.8m/s-40.9°C0%0hPa0V00:00:0000:00:0000:00:00
ARGUS22026-09-05 23:43:5427.71033-82.3132258°11km/h11079m3.3m/s-40.2°C0%0hPa0V00:00:0000:00:0000:00:00
ARGUS22026-09-05 23:43:1227.70959-82.3145955°20km/h10897m4.8m/s-38.9°C0%0hPa0V00:00:0000:00:0000:00:00
ARGUS22026-09-05 23:42:5227.70919-82.3154560°15km/h10809m3.4m/s-38.2°C0%0hPa0V00:00:0000:00:0000:00:00
ARGUS22026-09-05 23:42:3227.70870-82.3166466°26km/h10716m5.2m/s-37.6°C0%0hPa0V00:00:0000:00:0000:00:00
ARGUS22026-09-05 23:42:1127.70814-82.3179952°29km/h10630m4.5m/s-36.9°C0%0hPa0V00:00:0000:00:0000:00:00
ARGUS22026-09-05 23:41:5127.70748-82.3194770°22km/h10547m4.5m/s-36.2°C0%0hPa0V00:00:0000:00:0000:00:00
ARGUS22026-09-05 23:41:3027.70683-82.3207270°24km/h10471m3.8m/s-35.6°C0%0hPa0V00:00:0000:00:0000:00:00
ARGUS22026-09-05 23:41:1027.70630-82.3220482°20km/h10388m4.2m/s-34.9°C0%0hPa0V00:00:0000:00:0000:00:00
ARGUS22026-09-05 23:40:4927.70592-82.3231960°16km/h10309m3.1m/s-34.4°C0%0hPa0V00:00:0000:00:0000:00:00
ARGUS22026-09-05 23:40:2927.70559-82.32421106°16km/h10229m3.9m/s-33.7°C0%0hPa0V00:00:0000:00:0000:00:00
ARGUS22026-09-05 23:40:0827.70539-82.3253021°7km/h10148m3.9m/s-33.0°C0%0hPa0V00:00:0000:00:0000:00:00
ARGUS22026-09-05 23:39:4727.70503-82.3259452°20km/h10070m3.9m/s-32.2°C0%0hPa0V00:00:0000:00:0000:00:00
ARGUS22026-09-05 23:39:2727.70451-82.3267649°22km/h9995m4.4m/s-31.6°C0%0hPa0V00:00:0000:00:0000:00:00
ARGUS22026-09-05 23:39:0627.70399-82.3274242°13km/h9922m2.9m/s-31.1°C0%0hPa0V00:00:0000:00:0000:00:00
ARGUS22026-09-05 23:38:4527.70325-82.3281259°16km/h9847m3.6m/s-31.2°C0%0hPa0V00:00:0000:00:0000:00:00
ARGUS22026-09-05 23:38:2527.70255-82.32833361°16km/h9774m3.1m/s-30.8°C0%0hPa0V00:00:0000:00:0000:00:00
ARGUS22026-09-05 23:38:0427.70168-82.3286031°20km/h9693m4.9m/s-30.3°C0%0hPa0V00:00:0000:00:0000:00:00
ARGUS22026-09-05 23:37:4427.70092-82.3289534°16km/h9617m4.9m/s-29.8°C0%0hPa0V00:00:0000:00:0000:00:00
ARGUS22026-09-05 23:37:2427.70036-82.3293628°15km/h9537m2.9m/s-29.1°C0%0hPa0V00:00:0000:00:0000:00:00
ARGUS22026-09-05 23:37:0327.69976-82.3299629°15km/h9462m4.5m/s-28.4°C0%0hPa0V00:00:0000:00:0000:00:00
ARGUS22026-09-05 23:36:4327.69908-82.3302218°13km/h9375m3.7m/s-27.8°C0%0hPa0V00:00:0000:00:0000:00:00
ARGUS22026-09-05 23:36:2227.69849-82.3303825°20km/h9292m3.2m/s-27.1°C0%0hPa0V00:00:0000:00:0000:00:00
ARGUS22026-09-05 23:35:4127.69703-82.33085352°7km/h9123m5.4m/s-25.8°C0%0hPa0V00:00:0000:00:0000:00:00
ARGUS22026-09-05 23:35:2127.69634-82.33125358°18km/h9033m4.0m/s-25.0°C0%0hPa0V00:00:0000:00:0000:00:00
ARGUS22026-09-05 23:35:0027.69556-82.3316223°24km/h8941m3.6m/s-24.6°C0%0hPa0V00:00:0000:00:0000:00:00
ARGUS22026-09-05 23:34:3927.69455-82.33182359°24km/h8855m5.5m/s-23.9°C0%0hPa0V00:00:0000:00:0000:00:00
ARGUS22026-09-05 23:34:1827.69355-82.3321261°20km/h8756m4.5m/s-23.2°C0%0hPa0V00:00:0000:00:0000:00:00
ARGUS22026-09-05 23:33:5727.69258-82.3327053°16km/h8656m4.6m/s-22.5°C0%0hPa0V00:00:0000:00:0000:00:00
ARGUS22026-09-05 23:33:3527.69193-82.3335347°22km/h8563m4.8m/s-21.7°C0%0hPa0V00:00:0000:00:0000:00:00
ARGUS22026-09-05 23:32:5427.69061-82.3351536°20km/h8383m4.9m/s-20.4°C0%0hPa0V00:00:0000:00:0000:00:00
ARGUS22026-09-05 23:32:3427.68990-82.3357457°15km/h8296m3.7m/s-19.9°C0%0hPa0V00:00:0000:00:0000:00:00
ARGUS22026-09-05 23:32:1327.68928-82.3365962°24km/h8208m4.3m/s-19.7°C0%0hPa0V00:00:0000:00:0000:00:00
ARGUS22026-09-05 23:31:5327.68894-82.3372058°15km/h8123m4.2m/s-19.2°C0%0hPa0V00:00:0000:00:0000:00:00
ARGUS22026-09-05 23:31:3327.68867-82.3378158°5km/h8031m5.3m/s-18.6°C0%0hPa0V00:00:0000:00:0000:00:00
ARGUS22026-09-05 23:31:1227.68848-82.3383462°20km/h7947m4.2m/s-17.9°C0%0hPa0V00:00:0000:00:0000:00:00
ARGUS22026-09-05 23:30:5227.68835-82.3389083°11km/h7858m4.9m/s-17.1°C0%0hPa0V00:00:0000:00:0000:00:00
ARGUS22026-09-05 23:30:3127.68834-82.3394282°2km/h7771m3.5m/s-16.5°C0%0hPa0V00:00:0000:00:0000:00:00
ARGUS22026-09-05 23:30:1127.68842-82.33991145°4km/h7682m4.8m/s-15.8°C0%0hPa0V00:00:0000:00:0000:00:00
ARGUS22026-09-05 23:29:4927.68862-82.34039170°7km/h7592m3.7m/s-15.3°C0%0hPa0V00:00:0000:00:0000:00:00
ARGUS22026-09-05 23:29:2827.68872-82.3409270°5km/h7503m5.1m/s-14.7°C0%0hPa0V00:00:0000:00:0000:00:00
ARGUS22026-09-05 23:29:0027.68901-82.34167110°15km/h7387m4.9m/s-13.9°C0%0hPa0V00:00:0000:00:0000:00:00
ARGUS22026-09-05 23:28:4027.68925-82.3423191°5km/h7297m2.9m/s-13.4°C0%0hPa0V00:00:0000:00:0000:00:00
ARGUS22026-09-05 23:28:1827.68954-82.3429046°7km/h7214m4.3m/s-13.1°C0%0hPa0V00:00:0000:00:0000:00:00
ARGUS22026-09-05 23:27:5827.68980-82.34343128°18km/h7138m3.5m/s-12.6°C0%0hPa0V00:00:0000:00:0000:00:00
ARGUS22026-09-05 23:27:3827.69019-82.34394121°7km/h7058m3.5m/s-12.2°C0%0hPa0V00:00:0000:00:0000:00:00
ARGUS22026-09-05 23:27:1727.69045-82.3442998°9km/h6978m4.1m/s-11.6°C0%0hPa0V00:00:0000:00:0000:00:00
ARGUS22026-09-05 23:26:5727.69075-82.3449596°13km/h6898m4.2m/s-11.2°C0%0hPa0V00:00:0000:00:0000:00:00
ARGUS22026-09-05 23:26:3627.69089-82.3455898°11km/h6820m4.2m/s-10.9°C0%0hPa0V00:00:0000:00:0000:00:00
ARGUS22026-09-05 23:26:1627.69102-82.3462794°16km/h6738m4.8m/s-10.4°C0%0hPa0V00:00:0000:00:0000:00:00
ARGUS22026-09-05 23:25:5427.69118-82.3471990°13km/h6654m3.4m/s-10.1°C0%0hPa0V00:00:0000:00:0000:00:00
ARGUS22026-09-05 23:25:3427.69142-82.3481789°16km/h6573m4.3m/s-9.7°C0%0hPa0V00:00:0000:00:0000:00:00
ARGUS22026-09-05 23:25:1327.69156-82.3492397°20km/h6489m4.7m/s-9.4°C0%0hPa0V00:00:0000:00:0000:00:00
ARGUS22026-09-05 23:24:5327.69183-82.35037100°15km/h6407m4.7m/s-9.0°C0%0hPa0V00:00:0000:00:0000:00:00
ARGUS22026-09-05 23:24:3227.69219-82.35165108°33km/h6314m4.4m/s-8.5°C0%0hPa0V00:00:0000:00:0000:00:00
ARGUS22026-09-05 23:24:1127.69247-82.35315123°27km/h6229m4.8m/s-8.0°C0%0hPa0V00:00:0000:00:0000:00:00
ARGUS22026-09-05 23:23:4927.69293-82.35463111°33km/h6141m4.2m/s-7.5°C0%0hPa0V00:00:0000:00:0000:00:00
ARGUS22026-09-05 23:23:0927.69330-82.3570787°18km/h5981m1.3m/s-6.8°C0%0hPa0V00:00:0000:00:0000:00:00
ARGUS22026-09-05 23:22:4827.69329-82.3582796°13km/h5909m3.4m/s-6.5°C0%0hPa0V00:00:0000:00:0000:00:00
ARGUS22026-09-05 23:21:4127.69280-82.3619881°18km/h5672m3.1m/s-5.1°C0%0hPa0V00:00:0000:00:0000:00:00
ARGUS22026-09-05 23:21:2127.69273-82.3629771°16km/h5596m3.0m/s-4.8°C0%0hPa0V00:00:0000:00:0000:00:00
ARGUS22026-09-05 23:20:5927.69275-82.36401122°16km/h5517m4.3m/s-4.4°C0%0hPa0V00:00:0000:00:0000:00:00
ARGUS22026-09-05 23:20:3627.69299-82.36530127°29km/h5420m4.8m/s-3.9°C0%0hPa0V00:00:0000:00:0000:00:00
ARGUS22026-09-05 23:20:1427.69301-82.3660327°18km/h5314m5.8m/s-3.3°C0%0hPa0V00:00:0000:00:0000:00:00
ARGUS22026-09-05 23:19:5227.69303-82.3669387°16km/h5205m3.7m/s-2.7°C0%0hPa0V00:00:0000:00:0000:00:00
ARGUS22026-09-05 23:19:3227.69305-82.3676859°18km/h5127m4.1m/s-2.1°C0%0hPa0V00:00:0000:00:0000:00:00
ARGUS22026-09-05 23:19:1127.69305-82.3685884°22km/h5045m4.0m/s-1.6°C0%0hPa0V00:00:0000:00:0000:00:00
ARGUS22026-09-05 23:18:5127.69319-82.36932116°18km/h4966m4.7m/s-1.0°C0%0hPa0V00:00:0000:00:0000:00:00
ARGUS22026-09-05 23:18:3127.69345-82.3705286°15km/h4871m3.2m/s-0.6°C0%0hPa0V00:00:0000:00:0000:00:00
ARGUS22026-09-05 23:18:1027.69375-82.37128118°22km/h4785m5.3m/s-0.0°C0%0hPa0V00:00:0000:00:0000:00:00
ARGUS22026-09-05 23:17:4927.69396-82.37206134°26km/h4687m4.3m/s0.8°C0%0hPa0V00:00:0000:00:0000:00:00
ARGUS22026-09-05 23:17:2927.69443-82.37299107°22km/h4599m4.4m/s1.4°C0%0hPa0V00:00:0000:00:0000:00:00
ARGUS22026-09-05 23:17:1827.69468-82.37383127°16km/h4501m3.8m/s2.1°C0%0hPa0V00:00:0000:00:0000:00:00
ARGUS22026-09-05 23:16:4627.69486-82.37468100°18km/h4405m5.2m/s2.7°C0%0hPa0V00:00:0000:00:0000:00:00
ARGUS22026-09-05 23:16:2627.69501-82.37553122°9km/h4316m4.2m/s3.2°C0%0hPa0V00:00:0000:00:0000:00:00
ARGUS22026-09-05 23:16:0427.69519-82.37658119°24km/h4232m3.7m/s0°C0%0hPa0V00:00:0000:00:0000:00:00
ARGUS22026-09-05 23:11:4627.69465-82.38620103°26km/h2978m3.9m/s10.4°C0%0hPa0V00:00:0000:00:0000:00:00
ARGUS22026-09-05 23:11:2027.69481-82.38715183°5km/h2837m5.1m/s11.3°C0%0hPa0V00:00:0000:00:0000:00:00
ARGUS22026-09-05 23:10:5627.69473-82.3877570°16km/h2696m3.7m/s11.9°C0%0hPa0V00:00:0000:00:0000:00:00
ARGUS22026-09-05 23:10:0427.69480-82.3894341°9km/h2436m6.0m/s13.9°C0%0hPa0V00:00:0000:00:0000:00:00
ARGUS22026-09-05 23:09:4427.69481-82.3896062°16km/h2320m6.5m/s14.3°C0%0hPa0V00:00:0000:00:0000:00:00
ARGUS22026-09-05 23:09:1627.69480-82.39019130°22km/h2178m6.4m/s15.2°C0%0hPa0V00:00:0000:00:0000:00:00
ARGUS22026-09-05 23:08:5527.69505-82.39051215°9km/h2062m6.3m/s15.7°C0%0hPa0V00:00:0000:00:0000:00:00
ARGUS22026-09-05 23:08:3227.69556-82.39083124°18km/h1944m5.3m/s16.5°C0%0hPa0V00:00:0000:00:0000:00:00
ARGUS22026-09-05 23:08:0927.69623-82.391080km/h1820m4.5m/s17.5°C0%0hPa0V00:00:0000:00:0000:00:00
ARGUS22026-09-05 23:07:4927.69674-82.39140135°26km/h1714m5.2m/s18.2°C0%0hPa0V00:00:0000:00:0000:00:00
ARGUS22026-09-05 23:07:2527.69743-82.39201203°16km/h1596m6.5m/s19.2°C0%0hPa0V00:00:0000:00:0000:00:00
ARGUS22026-09-05 23:07:0527.69803-82.39245115°2km/h1474m4.1m/s20.1°C0%0hPa0V00:00:0000:00:0000:00:00
ARGUS22026-09-05 23:06:1027.69938-82.39429162°22km/h1209m7.0m/s21.8°C0%0hPa0V00:00:0000:00:0000:00:00
ARGUS22026-09-05 23:05:4227.70034-82.39491195°20km/h1045m6.2m/s21.5°C0%0hPa0V00:00:0000:00:0000:00:00


GPX KML Map

© wettersonde.net (DO2JMG) - 2026  -  -